createdAt,value
2023-01-22T00:00:01.816Z,11.80
2023-01-22T00:02:28.491Z,12.10
2023-01-22T00:04:55.026Z,11.97
2023-01-22T00:07:21.635Z,11.47
2023-01-22T00:09:48.090Z,11.90
2023-01-22T00:12:14.617Z,10.80
2023-01-22T00:14:42.262Z,12.07
2023-01-22T00:17:08.813Z,11.17
2023-01-22T00:19:35.327Z,10.70
2023-01-22T00:22:01.895Z,11.23
2023-01-22T00:24:28.426Z,11.60
2023-01-22T00:26:55.005Z,11.00
2023-01-22T00:29:21.521Z,11.70
2023-01-22T00:31:48.159Z,10.63
2023-01-22T00:34:14.749Z,10.40
2023-01-22T00:36:41.535Z,11.07
2023-01-22T00:39:10.131Z,10.63
2023-01-22T00:41:36.990Z,10.57
2023-01-22T00:44:03.617Z,10.10
2023-01-22T00:46:30.244Z,10.83
2023-01-22T00:48:56.875Z,10.50
2023-01-22T00:51:23.543Z,11.10
2023-01-22T00:53:50.262Z,10.17
2023-01-22T00:56:17.093Z,11.63
2023-01-22T00:58:44.236Z,10.27
2023-01-22T01:01:13.671Z,10.83
2023-01-22T01:03:40.296Z,10.80
2023-01-22T01:06:08.317Z,10.47
2023-01-22T01:08:38.132Z,11.00
2023-01-22T01:11:07.260Z,11.23
2023-01-22T01:13:42.900Z,10.30
2023-01-22T01:16:17.190Z,10.87
2023-01-22T01:18:44.793Z,10.23
2023-01-22T01:21:12.201Z,11.17
2023-01-22T01:23:39.313Z,11.90
2023-01-22T01:26:07.583Z,10.80
2023-01-22T01:28:38.452Z,11.30
2023-01-22T01:31:11.001Z,11.07
2023-01-22T01:33:37.870Z,11.13
2023-01-22T01:36:08.022Z,11.10
2023-01-22T01:38:34.709Z,11.30
2023-01-22T01:41:01.356Z,11.23
2023-01-22T01:43:28.506Z,12.07
2023-01-22T01:45:57.673Z,11.10
2023-01-22T01:48:43.623Z,12.07
2023-01-22T01:51:19.196Z,11.00
2023-01-22T01:53:48.766Z,11.87
2023-01-22T01:56:23.199Z,11.83
2023-01-22T01:58:53.255Z,11.80
2023-01-22T02:01:20.257Z,12.20
2023-01-22T02:03:47.343Z,11.73
2023-01-22T02:06:16.508Z,11.40
2023-01-22T02:08:47.973Z,11.80
2023-01-22T02:11:16.825Z,11.20
2023-01-22T02:13:49.667Z,12.03
2023-01-22T02:16:17.952Z,12.07
2023-01-22T02:18:44.496Z,11.10
2023-01-22T02:21:37.208Z,12.07
2023-01-22T02:24:07.479Z,10.63
2023-01-22T02:26:34.804Z,10.83
2023-01-22T02:29:01.848Z,11.37
2023-01-22T02:31:30.762Z,11.47
2023-01-22T02:33:58.740Z,10.83
2023-01-22T02:36:29.498Z,11.67
2023-01-22T02:38:56.309Z,11.67
2023-01-22T02:41:23.093Z,11.20
2023-01-22T02:43:49.623Z,10.97
2023-01-22T02:46:18.949Z,11.80
2023-01-22T02:48:45.502Z,10.67
2023-01-22T02:51:12.378Z,11.97
2023-01-22T02:53:40.095Z,11.43
2023-01-22T02:56:08.613Z,11.40
2023-01-22T02:58:38.015Z,10.73
2023-01-22T03:01:20.455Z,10.60
2023-01-22T03:04:13.126Z,11.43
2023-01-22T03:06:46.305Z,10.70
2023-01-22T03:09:15.922Z,10.97
2023-01-22T03:11:45.918Z,11.17
2023-01-22T03:14:35.350Z,10.93
2023-01-22T03:17:20.936Z,12.23
2023-01-22T03:20:06.132Z,11.23
2023-01-22T03:22:32.963Z,11.13
2023-01-22T03:25:01.322Z,11.23
2023-01-22T03:27:30.001Z,11.13
2023-01-22T03:29:57.116Z,11.37
2023-01-22T03:32:24.466Z,10.50
2023-01-22T03:34:51.645Z,11.10
2023-01-22T03:37:18.478Z,11.27
2023-01-22T03:39:48.037Z,11.23
2023-01-22T03:42:24.954Z,11.47
2023-01-22T03:44:51.528Z,11.13
2023-01-22T03:47:18.109Z,11.73
2023-01-22T03:49:44.628Z,11.33
2023-01-22T03:52:11.150Z,11.07
2023-01-22T03:54:39.621Z,10.80
2023-01-22T03:57:07.437Z,11.10
2023-01-22T03:59:37.128Z,10.90
2023-01-22T04:02:03.681Z,10.90
2023-01-22T04:04:33.771Z,10.70
2023-01-22T04:07:02.225Z,10.53
2023-01-22T04:09:28.801Z,11.00
2023-01-22T04:11:56.922Z,10.90
2023-01-22T04:14:23.491Z,10.83
2023-01-22T04:16:56.585Z,10.50
2023-01-22T04:19:41.772Z,9.67
2023-01-22T04:22:28.609Z,10.33
2023-01-22T04:24:56.412Z,9.80
2023-01-22T04:27:23.043Z,9.67
2023-01-22T04:29:51.409Z,10.17
2023-01-22T04:32:18.936Z,9.97
2023-01-22T04:35:14.971Z,10.40
2023-01-22T04:37:49.766Z,10.73
2023-01-22T04:40:18.470Z,10.33
2023-01-22T04:42:47.530Z,10.33
2023-01-22T04:45:15.155Z,10.17
2023-01-22T04:47:43.308Z,9.83
2023-01-22T04:50:17.587Z,10.73
2023-01-22T04:52:44.913Z,9.93
2023-01-22T04:55:12.864Z,9.37
2023-01-22T04:57:48.181Z,9.37
2023-01-22T05:00:15.298Z,8.90
2023-01-22T05:02:42.061Z,9.43
2023-01-22T05:05:09.776Z,9.47
2023-01-22T05:07:36.303Z,10.03
2023-01-22T05:10:02.922Z,10.17
2023-01-22T05:12:29.845Z,9.77
2023-01-22T05:14:56.440Z,10.13
2023-01-22T05:17:23.893Z,8.53
2023-01-22T05:19:50.412Z,9.37
2023-01-22T05:22:20.615Z,9.87
2023-01-22T05:24:47.996Z,9.47
2023-01-22T05:27:14.955Z,9.77
2023-01-22T05:29:52.453Z,9.87
2023-01-22T05:32:38.122Z,10.13
2023-01-22T05:35:05.971Z,9.20
2023-01-22T05:37:35.241Z,9.63
2023-01-22T05:40:05.317Z,8.63
2023-01-22T05:42:34.195Z,9.57
2023-01-22T05:45:01.926Z,10.30
2023-01-22T05:47:30.121Z,9.57
2023-01-22T05:50:10.579Z,9.37
2023-01-22T05:52:37.142Z,9.30
2023-01-22T05:55:04.053Z,9.73
2023-01-22T05:57:37.324Z,9.67
2023-01-22T06:00:05.891Z,9.13
2023-01-22T06:02:43.279Z,9.60
2023-01-22T06:05:11.997Z,9.47
2023-01-22T06:07:40.139Z,9.17
2023-01-22T06:10:07.300Z,9.60
2023-01-22T06:12:40.740Z,8.73
2023-01-22T06:15:07.918Z,9.13
2023-01-22T06:17:35.065Z,9.10
2023-01-22T06:20:02.545Z,9.67
2023-01-22T06:22:29.219Z,10.50
2023-01-22T06:24:59.735Z,9.53
2023-01-22T06:27:41.046Z,9.53
2023-01-22T06:30:08.269Z,9.67
2023-01-22T06:32:34.839Z,9.60
2023-01-22T06:35:02.048Z,9.33
2023-01-22T06:37:29.285Z,9.20
2023-01-22T06:39:56.914Z,8.70
2023-01-22T06:42:29.233Z,9.30
2023-01-22T06:44:56.630Z,9.27
2023-01-22T06:47:26.585Z,9.07
2023-01-22T06:49:53.257Z,10.07
2023-01-22T06:52:19.835Z,8.83
2023-01-22T06:54:47.113Z,9.67
2023-01-22T06:57:13.900Z,9.67
2023-01-22T06:59:41.098Z,8.90
2023-01-22T07:02:07.776Z,8.70
2023-01-22T07:04:34.290Z,8.40
2023-01-22T07:07:00.883Z,8.07
2023-01-22T07:09:27.406Z,8.77
2023-01-22T07:11:53.898Z,8.13
2023-01-22T07:14:35.702Z,8.83
2023-01-22T07:17:02.936Z,8.00
2023-01-22T07:19:29.540Z,8.23
2023-01-22T07:21:56.112Z,8.70
2023-01-22T07:24:22.901Z,8.23
2023-01-22T07:26:49.631Z,9.03
2023-01-22T07:29:16.465Z,8.30
2023-01-22T07:31:43.297Z,8.13
2023-01-22T07:34:10.932Z,8.00
2023-01-22T07:36:37.447Z,8.33
2023-01-22T07:39:05.596Z,8.57
2023-01-22T07:41:32.739Z,9.03
2023-01-22T07:44:00.443Z,9.13
2023-01-22T07:46:27.998Z,8.10
2023-01-22T07:48:55.092Z,8.43
2023-01-22T07:51:21.636Z,8.17
2023-01-22T07:53:48.165Z,8.17
2023-01-22T07:56:14.811Z,7.77
2023-01-22T07:58:41.502Z,7.97
2023-01-22T08:01:08.624Z,9.20
2023-01-22T08:03:35.213Z,9.00
2023-01-22T08:06:02.195Z,8.13
2023-01-22T08:08:28.776Z,8.27
2023-01-22T08:10:58.734Z,8.43
2023-01-22T08:13:25.294Z,7.80
2023-01-22T08:15:51.883Z,8.43
2023-01-22T08:18:20.026Z,7.80
2023-01-22T08:20:47.984Z,7.07
2023-01-22T08:23:14.585Z,8.17
2023-01-22T08:25:41.195Z,7.63
2023-01-22T08:28:07.754Z,7.80
2023-01-22T08:30:45.369Z,6.83
2023-01-22T08:33:12.777Z,7.47
2023-01-22T08:35:39.746Z,7.57
2023-01-22T08:38:06.363Z,7.43
2023-01-22T08:40:32.997Z,7.00
2023-01-22T08:42:59.577Z,7.10
2023-01-22T08:45:26.163Z,7.37
2023-01-22T08:47:58.177Z,7.30
2023-01-22T08:50:24.719Z,7.33
2023-01-22T08:52:51.311Z,7.40
2023-01-22T08:55:17.796Z,8.03
2023-01-22T08:57:44.311Z,7.10
2023-01-22T09:00:11.400Z,7.40
2023-01-22T09:02:37.983Z,7.57
2023-01-22T09:05:04.803Z,7.17
2023-01-22T09:07:31.359Z,6.97
2023-01-22T09:09:57.884Z,6.93
2023-01-22T09:12:24.669Z,7.63
2023-01-22T09:14:51.287Z,6.80
2023-01-22T09:17:17.796Z,7.87
2023-01-22T09:19:44.343Z,7.13
2023-01-22T09:22:10.961Z,6.97
2023-01-22T09:24:37.439Z,6.90
2023-01-22T09:27:03.954Z,6.70
2023-01-22T09:29:30.439Z,7.33
2023-01-22T09:31:57.132Z,7.13
2023-01-22T09:34:23.652Z,6.40
2023-01-22T09:36:50.252Z,6.83
2023-01-22T09:39:20.964Z,6.27
2023-01-22T09:41:52.453Z,6.93
2023-01-22T09:44:25.658Z,6.63
2023-01-22T09:46:57.358Z,6.07
2023-01-22T09:49:38.038Z,6.93
2023-01-22T09:52:06.270Z,5.97
2023-01-22T09:54:33.071Z,6.23
2023-01-22T09:57:04.048Z,6.63
2023-01-22T09:59:44.192Z,6.57
2023-01-22T10:02:23.108Z,6.13
2023-01-22T10:04:55.446Z,5.87
2023-01-22T10:07:33.800Z,6.20
2023-01-22T10:10:16.928Z,7.00
2023-01-22T10:12:46.580Z,6.00
2023-01-22T10:15:18.282Z,6.30
2023-01-22T10:17:45.204Z,5.80
2023-01-22T10:20:13.786Z,5.10
2023-01-22T10:22:40.356Z,6.07
2023-01-22T10:25:13.592Z,5.97
2023-01-22T10:27:40.813Z,6.47
2023-01-22T10:30:24.973Z,6.63
2023-01-22T10:32:58.852Z,5.80
2023-01-22T10:35:25.746Z,5.37
2023-01-22T10:37:56.561Z,5.70
2023-01-22T10:40:26.599Z,6.47
2023-01-22T10:43:12.107Z,5.10
2023-01-22T10:45:39.857Z,5.93
2023-01-22T10:48:14.019Z,6.17
2023-01-22T10:50:42.086Z,5.73
2023-01-22T10:53:27.711Z,5.67
2023-01-22T10:55:57.525Z,5.53
2023-01-22T10:58:30.683Z,5.50
2023-01-22T11:01:06.867Z,6.17
2023-01-22T11:03:38.602Z,5.47
2023-01-22T11:06:13.435Z,6.47
2023-01-22T11:08:48.937Z,5.90
2023-01-22T11:11:20.311Z,6.13
2023-01-22T11:14:00.952Z,5.93
2023-01-22T11:16:32.085Z,6.77
2023-01-22T11:19:04.923Z,5.83
2023-01-22T11:21:37.002Z,6.00
2023-01-22T11:24:22.745Z,5.87
2023-01-22T11:27:14.569Z,6.80
2023-01-22T11:30:18.086Z,6.37
2023-01-22T11:32:51.668Z,5.77
2023-01-22T11:35:39.346Z,6.77
2023-01-22T11:38:24.539Z,6.40
2023-01-22T11:40:54.114Z,6.23
2023-01-22T11:43:29.804Z,6.63
2023-01-22T11:46:09.498Z,6.40
2023-01-22T11:48:52.776Z,6.50
2023-01-22T11:51:28.302Z,6.87
2023-01-22T11:54:15.417Z,6.77
2023-01-22T11:57:07.068Z,6.93
2023-01-22T11:59:48.393Z,6.17
2023-01-22T12:02:25.941Z,6.60
2023-01-22T12:05:08.477Z,6.17
2023-01-22T12:07:45.478Z,6.60
2023-01-22T12:10:33.480Z,6.40
2023-01-22T12:13:18.645Z,6.17
2023-01-22T12:16:09.869Z,6.90
2023-01-22T12:19:07.425Z,5.87
2023-01-22T12:21:53.130Z,6.10
2023-01-22T12:24:40.067Z,5.80
2023-01-22T12:27:12.583Z,6.67
2023-01-22T12:29:43.605Z,6.13
2023-01-22T12:32:14.453Z,6.47
2023-01-22T12:34:53.513Z,6.00
2023-01-22T12:37:25.048Z,6.73
2023-01-22T12:40:05.946Z,6.20
2023-01-22T12:42:52.239Z,6.50
2023-01-22T12:45:31.087Z,6.10
2023-01-22T12:48:14.263Z,6.30
2023-01-22T12:50:55.652Z,5.87
2023-01-22T12:53:28.936Z,6.43
2023-01-22T12:56:03.412Z,14.97
2023-01-22T12:58:32.931Z,15.73
2023-01-22T13:01:11.357Z,9.03
2023-01-22T13:03:39.792Z,6.20
2023-01-22T13:06:34.488Z,5.70
2023-01-22T13:09:01.749Z,6.43
2023-01-22T13:11:30.438Z,6.33
2023-01-22T13:14:14.798Z,6.17
2023-01-22T13:16:55.289Z,5.70
2023-01-22T13:19:26.960Z,5.70
2023-01-22T13:21:56.708Z,6.40
2023-01-22T13:24:23.237Z,5.93
2023-01-22T13:26:56.648Z,6.43
2023-01-22T13:29:32.969Z,7.50
2023-01-22T13:32:02.403Z,6.77
2023-01-22T13:34:29.592Z,7.33
2023-01-22T13:36:57.896Z,7.23
2023-01-22T13:39:30.006Z,7.00
2023-01-22T13:41:59.814Z,7.00
2023-01-22T13:44:36.133Z,7.63
2023-01-22T13:47:03.213Z,6.97
2023-01-22T13:49:41.027Z,6.50
2023-01-22T13:52:13.548Z,5.93
2023-01-22T13:54:44.878Z,7.30
2023-01-22T13:57:18.528Z,6.33
2023-01-22T14:00:00.361Z,6.03
2023-01-22T14:02:32.576Z,6.93
2023-01-22T14:04:59.512Z,7.60
2023-01-22T14:07:32.540Z,6.50
2023-01-22T14:10:13.106Z,7.10
2023-01-22T14:12:39.657Z,8.07
2023-01-22T14:15:21.172Z,10.40
2023-01-22T14:17:49.821Z,10.50
2023-01-22T14:20:17.620Z,7.03
2023-01-22T14:22:44.299Z,7.70
2023-01-22T14:25:11.062Z,7.13
2023-01-22T14:27:48.702Z,7.33
2023-01-22T14:30:18.083Z,6.80
2023-01-22T14:32:45.527Z,7.17
2023-01-22T14:35:17.791Z,6.87
2023-01-22T14:37:44.679Z,6.57
2023-01-22T14:40:13.408Z,6.80
2023-01-22T14:42:40.477Z,6.40
2023-01-22T14:45:07.825Z,7.87
2023-01-22T14:47:34.780Z,6.40
2023-01-22T14:50:02.520Z,6.53
2023-01-22T14:52:29.100Z,7.83
2023-01-22T14:54:56.106Z,7.57
2023-01-22T14:57:24.364Z,7.43
2023-01-22T14:59:51.173Z,7.60
2023-01-22T15:02:18.363Z,8.40
2023-01-22T15:04:45.568Z,6.83
2023-01-22T15:07:12.408Z,6.93
2023-01-22T15:09:39.568Z,7.50
2023-01-22T15:12:07.137Z,7.37
2023-01-22T15:14:33.648Z,7.13
2023-01-22T15:17:00.409Z,6.50
2023-01-22T15:19:27.032Z,6.90
2023-01-22T15:21:53.778Z,7.13
2023-01-22T15:24:20.501Z,6.70
2023-01-22T15:26:47.422Z,7.03
2023-01-22T15:29:14.911Z,7.90
2023-01-22T15:31:41.977Z,7.20
2023-01-22T15:34:08.915Z,6.97
2023-01-22T15:36:37.085Z,7.60
2023-01-22T15:39:03.875Z,7.03
2023-01-22T15:41:32.618Z,7.10
2023-01-22T15:44:01.390Z,6.80
2023-01-22T15:46:30.836Z,6.97
2023-01-22T15:49:00.951Z,7.27
2023-01-22T15:51:28.653Z,7.33
2023-01-22T15:53:58.140Z,8.70
2023-01-22T15:56:26.941Z,9.10
2023-01-22T15:58:54.314Z,7.57
2023-01-22T16:01:22.289Z,8.13
2023-01-22T16:03:49.041Z,7.10
2023-01-22T16:06:22.507Z,7.87
2023-01-22T16:08:50.574Z,7.97
2023-01-22T16:11:17.549Z,8.87
2023-01-22T16:13:44.166Z,7.83
2023-01-22T16:16:15.325Z,9.30
2023-01-22T16:18:42.490Z,9.57
2023-01-22T16:21:10.231Z,8.33
2023-01-22T16:23:40.229Z,7.90
2023-01-22T16:26:09.372Z,7.50
2023-01-22T16:28:37.626Z,8.43
2023-01-22T16:31:05.855Z,8.70
2023-01-22T16:33:34.418Z,8.93
2023-01-22T16:36:07.652Z,9.60
2023-01-22T16:38:35.530Z,8.90
2023-01-22T16:41:15.782Z,8.40
2023-01-22T16:43:50.501Z,8.30
2023-01-22T16:46:19.591Z,9.37
2023-01-22T16:48:46.722Z,6.60
2023-01-22T16:51:17.358Z,6.93
2023-01-22T16:53:44.490Z,7.00
2023-01-22T16:56:11.281Z,6.73
2023-01-22T16:58:38.175Z,6.67
2023-01-22T17:01:06.653Z,7.27
2023-01-22T17:03:33.645Z,6.87
2023-01-22T17:06:00.911Z,6.50
2023-01-22T17:08:27.813Z,8.20
2023-01-22T17:10:54.369Z,8.03
2023-01-22T17:13:21.405Z,8.37
2023-01-22T17:15:50.491Z,7.23
2023-01-22T17:18:17.407Z,9.53
2023-01-22T17:20:57.478Z,10.13
2023-01-22T17:23:28.004Z,8.30
2023-01-22T17:25:54.611Z,7.93
2023-01-22T17:28:22.143Z,8.47
2023-01-22T17:30:49.216Z,8.97
2023-01-22T17:33:17.269Z,8.80
2023-01-22T17:35:43.987Z,10.23
2023-01-22T17:38:10.641Z,9.93
2023-01-22T17:40:37.270Z,8.80
2023-01-22T17:43:04.473Z,9.97
2023-01-22T17:45:31.495Z,9.77
2023-01-22T17:48:01.045Z,10.63
2023-01-22T17:50:27.592Z,10.00
2023-01-22T17:52:55.814Z,9.97
2023-01-22T17:55:22.399Z,9.33
2023-01-22T17:57:48.903Z,9.20
2023-01-22T18:00:17.505Z,9.37
2023-01-22T18:02:44.248Z,9.93
2023-01-22T18:05:11.103Z,11.00
2023-01-22T18:07:37.695Z,9.57
2023-01-22T18:10:04.556Z,8.97
2023-01-22T18:12:31.320Z,10.43
2023-01-22T18:14:57.884Z,9.67
2023-01-22T18:17:25.188Z,10.43
2023-01-22T18:19:51.744Z,11.03
2023-01-22T18:22:18.321Z,10.70
2023-01-22T18:24:45.265Z,10.43
2023-01-22T18:27:12.346Z,10.33
2023-01-22T18:29:38.912Z,11.17
2023-01-22T18:32:05.764Z,10.43
2023-01-22T18:34:32.448Z,10.77
2023-01-22T18:36:59.220Z,10.23
2023-01-22T18:39:26.015Z,10.63
2023-01-22T18:41:52.625Z,9.93
2023-01-22T18:44:20.369Z,10.73
2023-01-22T18:46:49.848Z,11.23
2023-01-22T18:49:18.827Z,10.90
2023-01-22T18:51:46.233Z,11.47
2023-01-22T18:54:13.157Z,12.20
2023-01-22T18:56:39.866Z,12.30
2023-01-22T18:59:06.857Z,11.67
2023-01-22T19:01:37.070Z,10.77
2023-01-22T19:04:08.696Z,10.27
2023-01-22T19:06:38.800Z,10.87
2023-01-22T19:09:06.936Z,10.77
2023-01-22T19:11:36.171Z,10.90
2023-01-22T19:14:06.057Z,10.57
2023-01-22T19:16:33.662Z,11.87
2023-01-22T19:19:03.853Z,10.73
2023-01-22T19:21:30.962Z,9.27
2023-01-22T19:23:59.867Z,10.23
2023-01-22T19:26:29.203Z,10.67
2023-01-22T19:28:58.675Z,9.90
2023-01-22T19:31:28.623Z,12.27
2023-01-22T19:33:56.561Z,11.27
2023-01-22T19:36:27.380Z,10.90
2023-01-22T19:38:59.166Z,10.00
2023-01-22T19:41:26.604Z,11.40
2023-01-22T19:43:59.183Z,11.83
2023-01-22T19:46:26.723Z,11.80
2023-01-22T19:48:53.646Z,10.47
2023-01-22T19:51:22.401Z,10.63
2023-01-22T19:53:49.617Z,10.20
2023-01-22T19:56:21.154Z,9.57
2023-01-22T19:58:48.907Z,10.33
2023-01-22T20:01:17.560Z,11.13
2023-01-22T20:03:44.753Z,9.70
2023-01-22T20:06:13.551Z,9.93
2023-01-22T20:08:40.889Z,9.77
2023-01-22T20:11:09.742Z,10.07
2023-01-22T20:13:37.867Z,9.30
2023-01-22T20:16:06.697Z,10.17
2023-01-22T20:18:33.916Z,11.30
2023-01-22T20:21:02.536Z,11.77
2023-01-22T20:23:30.121Z,10.43
2023-01-22T20:25:58.812Z,12.07
2023-01-22T20:28:26.042Z,11.60
2023-01-22T20:31:00.684Z,11.40
2023-01-22T20:33:28.215Z,10.80
2023-01-22T20:35:59.760Z,9.83
2023-01-22T20:38:26.801Z,9.57
2023-01-22T20:40:54.131Z,9.47
2023-01-22T20:43:21.008Z,9.90
2023-01-22T20:45:59.548Z,9.83
2023-01-22T20:48:26.442Z,9.70
2023-01-22T20:50:53.174Z,10.13
2023-01-22T20:53:19.954Z,9.17
2023-01-22T20:55:47.037Z,9.27
2023-01-22T20:58:13.599Z,11.13
2023-01-22T21:00:40.318Z,9.60
2023-01-22T21:03:07.071Z,10.33
2023-01-22T21:05:35.601Z,12.33
2023-01-22T21:08:02.243Z,9.23
2023-01-22T21:10:28.713Z,9.10
2023-01-22T21:12:55.310Z,12.67
2023-01-22T21:15:22.038Z,10.57
2023-01-22T21:17:48.755Z,10.80
2023-01-22T21:20:15.430Z,10.07
2023-01-22T21:22:42.573Z,12.17
2023-01-22T21:25:09.389Z,14.60
2023-01-22T21:27:36.064Z,10.43
2023-01-22T21:30:03.518Z,12.00
2023-01-22T21:32:30.617Z,19.07
2023-01-22T21:34:57.397Z,11.27
2023-01-22T21:37:24.058Z,9.17
2023-01-22T21:39:50.818Z,9.73
2023-01-22T21:42:36.358Z,9.60
2023-01-22T21:45:21.676Z,8.83
2023-01-22T21:47:48.316Z,8.30
2023-01-22T21:50:15.126Z,8.00
2023-01-22T21:52:43.469Z,8.70
2023-01-22T21:55:11.663Z,7.90
2023-01-22T21:57:38.528Z,8.57
2023-01-22T22:00:05.759Z,8.90
2023-01-22T22:02:32.337Z,8.50
2023-01-22T22:04:59.929Z,9.07
2023-01-22T22:07:26.611Z,8.77
2023-01-22T22:09:53.237Z,8.63
2023-01-22T22:12:20.033Z,8.80
2023-01-22T22:14:46.657Z,8.67
2023-01-22T22:17:13.812Z,11.03
2023-01-22T22:19:40.582Z,9.30
2023-01-22T22:22:07.207Z,9.53
2023-01-22T22:24:33.762Z,8.40
2023-01-22T22:27:00.293Z,8.73
2023-01-22T22:29:26.879Z,8.63
2023-01-22T22:31:53.557Z,8.50
2023-01-22T22:34:20.145Z,9.07
2023-01-22T22:36:46.879Z,8.73
2023-01-22T22:39:13.418Z,9.03
2023-01-22T22:41:39.970Z,8.47
2023-01-22T22:44:07.402Z,8.30
2023-01-22T22:46:37.106Z,8.73
2023-01-22T22:49:04.577Z,8.50
2023-01-22T22:51:36.709Z,7.97
2023-01-22T22:54:07.718Z,8.87
2023-01-22T22:56:34.466Z,8.20
2023-01-22T22:59:01.965Z,9.40
2023-01-22T23:01:30.200Z,8.13
2023-01-22T23:03:57.644Z,8.33
2023-01-22T23:06:27.238Z,7.80
2023-01-22T23:09:08.879Z,8.37
2023-01-22T23:11:36.551Z,8.43
2023-01-22T23:14:04.370Z,7.90
2023-01-22T23:16:36.902Z,8.70
2023-01-22T23:19:07.308Z,8.23
2023-01-22T23:21:41.641Z,8.70
2023-01-22T23:24:13.080Z,7.80
2023-01-22T23:26:41.637Z,8.27
2023-01-22T23:29:10.532Z,8.70
2023-01-22T23:31:38.440Z,8.60
2023-01-22T23:34:07.760Z,8.20
2023-01-22T23:36:35.052Z,8.27
2023-01-22T23:39:03.253Z,9.00
2023-01-22T23:41:30.119Z,8.37
2023-01-22T23:43:56.794Z,8.43
2023-01-22T23:46:25.759Z,7.93
2023-01-22T23:48:54.386Z,8.07
2023-01-22T23:51:22.126Z,8.33
2023-01-22T23:53:53.644Z,7.67
2023-01-22T23:56:22.554Z,8.07
2023-01-22T23:58:49.747Z,8.43
